Time,TemperatureF,DewpointF,PressureIn,WindDirection,WindDirectionDegrees,WindSpeedMPH,WindSpeedGustMPH,Humidity,HourlyPrecipIn,Conditions,Clouds,dailyrainin,SolarRadiationWatts/m^2,SoftwareType,DateUTC
2013-10-08 02:00:00,43.0,15.0,-100.00,NE,48,2.0,3.0,32,-99.99,,,0.00,0.000000,,2013-10-08 08:00:00,
2013-10-08 02:52:00,43.0,15.0,-100.00,NE,48,2.0,3.0,32,-99.99,,,0.00,0.000000,,2013-10-08 08:52:00,
2013-10-08 05:00:00,42.0,19.0,-100.00,NE,50,2.0,4.0,39,-99.99,,,0.00,0.000000,,2013-10-08 11:00:00,
2013-10-08 05:52:00,42.0,19.0,-100.00,NE,50,2.0,4.0,39,-99.99,,,0.00,0.000000,,2013-10-08 11:52:00,
2013-10-08 06:00:00,40.0,19.0,-100.00,NE,49,2.0,3.0,43,-99.99,,,0.00,0.000000,,2013-10-08 12:00:00,
2013-10-08 06:52:00,40.0,19.0,-100.00,NE,49,2.0,3.0,43,-99.99,,,0.00,0.000000,,2013-10-08 12:52:00,
2013-10-08 07:00:00,43.0,22.0,-100.00,NE,49,2.0,4.0,44,-99.99,,,0.00,0.300000,,2013-10-08 13:00:00,
2013-10-08 07:52:00,43.0,22.0,-100.00,NE,49,2.0,4.0,44,-99.99,,,0.00,0.300000,,2013-10-08 13:52:00,
2013-10-08 09:00:00,44.0,24.0,-100.00,NE,41,0.0,2.0,46,-99.99,,,0.00,45.200001,,2013-10-08 15:00:00,
2013-10-08 09:53:00,44.0,24.0,-100.00,NE,41,0.0,2.0,46,-99.99,,,0.00,45.200001,,2013-10-08 15:53:00,
2013-10-08 10:00:00,50.0,27.0,-100.00,NE,38,0.0,2.0,41,-99.99,,,0.00,340.399994,,2013-10-08 16:00:00,
2013-10-08 10:53:00,50.0,27.0,-100.00,NE,38,0.0,2.0,41,-99.99,,,0.00,340.399994,,2013-10-08 16:53:00,
2013-10-08 14:00:00,57.0,22.0,-100.00,NE,47,1.0,4.0,26,-99.99,,,0.00,791.200012,,2013-10-08 20:00:00,
2013-10-08 14:52:00,57.0,22.0,-100.00,NE,47,1.0,4.0,26,-99.99,,,0.00,791.200012,,2013-10-08 20:52:00,
2013-10-08 15:00:00,56.0,-99.9,-100.00,North,-999,-999.0,-999.0,-999,-99.99,,,0.00,,,2013-10-08 21:00:00,
2013-10-08 15:55:00,56.0,-99.9,-100.00,North,-999,-999.0,-999.0,-999,-99.99,,,0.00,,,2013-10-08 21:55:00,
2013-10-08 16:00:00,56.0,22.0,-100.00,NE,40,1.0,5.0,26,-99.99,,,0.00,151.399994,,2013-10-08 22:00:00,
2013-10-08 16:58:00,56.0,22.0,-100.00,NE,40,1.0,5.0,26,-99.99,,,0.00,151.399994,,2013-10-08 22:58:00,
2013-10-08 17:00:00,54.0,21.0,-100.00,NNE,31,1.0,5.0,27,-99.99,,,-99.99,55.599998,,2013-10-08 23:00:00,
2013-10-08 17:52:00,54.0,21.0,-100.00,NNE,31,1.0,5.0,27,-99.99,,,-99.99,55.599998,,2013-10-08 23:52:00,
2013-10-08 18:00:00,52.0,20.0,-100.00,NNE,33,1.0,4.0,29,-99.99,,,0.00,21.100000,,2013-10-09 00:00:00,
2013-10-08 18:52:00,52.0,20.0,-100.00,NNE,33,1.0,4.0,29,-99.99,,,0.00,21.100000,,2013-10-09 00:52:00,
2013-10-08 22:00:00,45.0,25.0,-100.00,NE,49,1.0,3.0,45,-99.99,,,0.00,0.000000,,2013-10-09 04:00:00,
2013-10-08 22:54:00,45.0,25.0,-100.00,NE,49,1.0,3.0,45,-99.99,,,0.00,0.000000,,2013-10-09 04:54:00,